sensor_id;sensor_type;location;lat;lon;timestamp;P1;durP1;ratioP1;P2;durP2;ratioP2
64826;SDS011;51265;53.972;12.286;2023-08-08T00:02:25;12.88;;;2.47;;
64826;SDS011;51265;53.972;12.286;2023-08-08T00:04:51;10.57;;;2.60;;
64826;SDS011;51265;53.972;12.286;2023-08-08T00:07:17;12.43;;;2.65;;
64826;SDS011;51265;53.972;12.286;2023-08-08T00:09:43;14.80;;;2.33;;
64826;SDS011;51265;53.972;12.286;2023-08-08T00:12:10;6.68;;;2.38;;
64826;SDS011;51265;53.972;12.286;2023-08-08T00:14:36;9.00;;;2.45;;
64826;SDS011;51265;53.972;12.286;2023-08-08T00:17:02;12.40;;;2.38;;
64826;SDS011;51265;53.972;12.286;2023-08-08T00:19:29;8.98;;;2.60;;
64826;SDS011;51265;53.972;12.286;2023-08-08T00:21:55;14.75;;;2.60;;
64826;SDS011;51265;53.972;12.286;2023-08-08T00:24:21;15.27;;;2.60;;
64826;SDS011;51265;53.972;12.286;2023-08-08T00:26:47;11.13;;;2.75;;
64826;SDS011;51265;53.972;12.286;2023-08-08T00:29:13;9.98;;;2.10;;
64826;SDS011;51265;53.972;12.286;2023-08-08T00:31:39;15.90;;;2.78;;
64826;SDS011;51265;53.972;12.286;2023-08-08T00:34:06;9.68;;;2.53;;
64826;SDS011;51265;53.972;12.286;2023-08-08T00:36:32;10.30;;;2.50;;
64826;SDS011;51265;53.972;12.286;2023-08-08T00:38:58;11.15;;;2.25;;
64826;SDS011;51265;53.972;12.286;2023-08-08T00:41:25;16.25;;;2.05;;
64826;SDS011;51265;53.972;12.286;2023-08-08T00:43:51;9.50;;;1.90;;
64826;SDS011;51265;53.972;12.286;2023-08-08T00:46:20;9.27;;;2.30;;
64826;SDS011;51265;53.972;12.286;2023-08-08T00:48:48;7.20;;;1.95;;
64826;SDS011;51265;53.972;12.286;2023-08-08T00:51:14;14.25;;;2.40;;
64826;SDS011;51265;53.972;12.286;2023-08-08T00:53:40;8.30;;;1.95;;
64826;SDS011;51265;53.972;12.286;2023-08-08T00:56:07;10.32;;;2.13;;
64826;SDS011;51265;53.972;12.286;2023-08-08T00:58:33;9.18;;;2.40;;
64826;SDS011;51265;53.972;12.286;2023-08-08T01:01:00;6.53;;;1.80;;
64826;SDS011;51265;53.972;12.286;2023-08-08T01:03:26;7.25;;;1.80;;
64826;SDS011;51265;53.972;12.286;2023-08-08T01:05:59;6.88;;;1.83;;
64826;SDS011;51265;53.972;12.286;2023-08-08T01:08:33;7.05;;;2.00;;
64826;SDS011;51265;53.972;12.286;2023-08-08T01:11:04;10.13;;;1.92;;
64826;SDS011;51265;53.972;12.286;2023-08-08T01:13:31;3.83;;;1.48;;
64826;SDS011;51265;53.972;12.286;2023-08-08T01:15:58;8.43;;;1.75;;
64826;SDS011;51265;53.972;12.286;2023-08-08T01:18:25;7.55;;;2.03;;
64826;SDS011;51265;53.972;12.286;2023-08-08T01:20:53;8.05;;;1.90;;
64826;SDS011;51265;53.972;12.286;2023-08-08T01:26:39;6.25;;;1.70;;
64826;SDS011;51265;53.972;12.286;2023-08-08T01:29:07;7.63;;;1.98;;
64826;SDS011;51265;53.972;12.286;2023-08-08T01:31:33;7.30;;;2.00;;
64826;SDS011;51265;53.972;12.286;2023-08-08T01:33:59;9.70;;;2.00;;
64826;SDS011;51265;53.972;12.286;2023-08-08T01:36:27;7.03;;;1.90;;
64826;SDS011;51265;53.972;12.286;2023-08-08T01:38:59;7.50;;;1.65;;
64826;SDS011;51265;53.972;12.286;2023-08-08T01:41:33;7.65;;;1.90;;
64826;SDS011;51265;53.972;12.286;2023-08-08T01:44:00;8.73;;;2.05;;
64826;SDS011;51265;53.972;12.286;2023-08-08T01:46:27;8.63;;;1.85;;
64826;SDS011;51265;53.972;12.286;2023-08-08T01:48:54;7.82;;;1.50;;
64826;SDS011;51265;53.972;12.286;2023-08-08T01:51:23;9.05;;;2.00;;
64826;SDS011;51265;53.972;12.286;2023-08-08T01:53:51;7.75;;;1.67;;
64826;SDS011;51265;53.972;12.286;2023-08-08T01:56:18;14.30;;;2.17;;
64826;SDS011;51265;53.972;12.286;2023-08-08T01:58:44;8.32;;;1.88;;
64826;SDS011;51265;53.972;12.286;2023-08-08T02:01:10;5.90;;;2.00;;
64826;SDS011;51265;53.972;12.286;2023-08-08T02:03:36;6.45;;;1.67;;
64826;SDS011;51265;53.972;12.286;2023-08-08T02:06:04;10.57;;;2.20;;
64826;SDS011;51265;53.972;12.286;2023-08-08T02:08:30;12.15;;;1.80;;
64826;SDS011;51265;53.972;12.286;2023-08-08T02:10:56;6.63;;;1.40;;
64826;SDS011;51265;53.972;12.286;2023-08-08T02:13:22;9.57;;;2.00;;
64826;SDS011;51265;53.972;12.286;2023-08-08T02:15:49;7.53;;;1.75;;
64826;SDS011;51265;53.972;12.286;2023-08-08T02:18:15;9.60;;;2.47;;
64826;SDS011;51265;53.972;12.286;2023-08-08T02:20:41;8.25;;;2.00;;
64826;SDS011;51265;53.972;12.286;2023-08-08T02:23:07;8.02;;;1.63;;
64826;SDS011;51265;53.972;12.286;2023-08-08T02:25:33;8.25;;;1.58;;
64826;SDS011;51265;53.972;12.286;2023-08-08T02:28:00;6.22;;;1.60;;
64826;SDS011;51265;53.972;12.286;2023-08-08T02:30:26;5.15;;;1.60;;
64826;SDS011;51265;53.972;12.286;2023-08-08T02:32:52;6.82;;;1.67;;
64826;SDS011;51265;53.972;12.286;2023-08-08T02:35:23;6.10;;;1.70;;
64826;SDS011;51265;53.972;12.286;2023-08-08T02:37:49;10.98;;;2.13;;
64826;SDS011;51265;53.972;12.286;2023-08-08T02:40:16;7.90;;;2.25;;
64826;SDS011;51265;53.972;12.286;2023-08-08T02:42:42;5.82;;;1.85;;
64826;SDS011;51265;53.972;12.286;2023-08-08T02:45:08;8.10;;;1.75;;
64826;SDS011;51265;53.972;12.286;2023-08-08T02:47:34;8.82;;;2.10;;
64826;SDS011;51265;53.972;12.286;2023-08-08T02:50:01;9.73;;;1.90;;
64826;SDS011;51265;53.972;12.286;2023-08-08T02:52:27;7.55;;;1.83;;
64826;SDS011;51265;53.972;12.286;2023-08-08T02:54:53;8.63;;;1.77;;
64826;SDS011;51265;53.972;12.286;2023-08-08T02:57:20;10.60;;;2.20;;
64826;SDS011;51265;53.972;12.286;2023-08-08T02:59:46;15.80;;;2.10;;
64826;SDS011;51265;53.972;12.286;2023-08-08T03:02:13;3.60;;;1.75;;
64826;SDS011;51265;53.972;12.286;2023-08-08T03:04:40;9.45;;;2.55;;
64826;SDS011;51265;53.972;12.286;2023-08-08T03:07:07;10.77;;;2.00;;
64826;SDS011;51265;53.972;12.286;2023-08-08T03:09:36;7.65;;;2.22;;
64826;SDS011;51265;53.972;12.286;2023-08-08T03:12:02;7.18;;;2.15;;
64826;SDS011;51265;53.972;12.286;2023-08-08T03:14:30;12.77;;;2.40;;
64826;SDS011;51265;53.972;12.286;2023-08-08T03:16:58;12.82;;;2.67;;
64826;SDS011;51265;53.972;12.286;2023-08-08T03:19:25;12.27;;;2.58;;
64826;SDS011;51265;53.972;12.286;2023-08-08T03:21:52;8.00;;;1.90;;
64826;SDS011;51265;53.972;12.286;2023-08-08T03:24:19;10.88;;;2.30;;
64826;SDS011;51265;53.972;12.286;2023-08-08T03:26:45;7.25;;;2.20;;
64826;SDS011;51265;53.972;12.286;2023-08-08T03:29:12;8.80;;;2.20;;
64826;SDS011;51265;53.972;12.286;2023-08-08T03:31:44;10.05;;;2.10;;
64826;SDS011;51265;53.972;12.286;2023-08-08T03:34:11;7.22;;;2.65;;
64826;SDS011;51265;53.972;12.286;2023-08-08T03:36:37;9.43;;;2.35;;
64826;SDS011;51265;53.972;12.286;2023-08-08T03:39:04;8.68;;;2.17;;
64826;SDS011;51265;53.972;12.286;2023-08-08T03:41:30;7.82;;;2.08;;
64826;SDS011;51265;53.972;12.286;2023-08-08T03:43:57;7.95;;;2.30;;
64826;SDS011;51265;53.972;12.286;2023-08-08T03:46:24;8.68;;;2.13;;
64826;SDS011;51265;53.972;12.286;2023-08-08T03:48:50;8.23;;;2.00;;
64826;SDS011;51265;53.972;12.286;2023-08-08T03:51:16;6.18;;;2.05;;
64826;SDS011;51265;53.972;12.286;2023-08-08T03:53:43;11.30;;;2.47;;
64826;SDS011;51265;53.972;12.286;2023-08-08T03:56:09;10.20;;;2.67;;
64826;SDS011;51265;53.972;12.286;2023-08-08T03:58:37;8.05;;;2.13;;
64826;SDS011;51265;53.972;12.286;2023-08-08T04:01:05;7.75;;;1.95;;
64826;SDS011;51265;53.972;12.286;2023-08-08T04:03:31;7.40;;;1.90;;
64826;SDS011;51265;53.972;12.286;2023-08-08T04:05:57;19.05;;;2.13;;
64826;SDS011;51265;53.972;12.286;2023-08-08T04:08:24;10.77;;;2.20;;
64826;SDS011;51265;53.972;12.286;2023-08-08T04:10:50;11.25;;;2.00;;
64826;SDS011;51265;53.972;12.286;2023-08-08T04:13:16;9.27;;;2.63;;
64826;SDS011;51265;53.972;12.286;2023-08-08T04:15:43;6.20;;;1.83;;
64826;SDS011;51265;53.972;12.286;2023-08-08T04:18:10;7.75;;;2.13;;
64826;SDS011;51265;53.972;12.286;2023-08-08T04:20:36;10.70;;;2.00;;
64826;SDS011;51265;53.972;12.286;2023-08-08T04:23:02;7.80;;;2.10;;
64826;SDS011;51265;53.972;12.286;2023-08-08T04:25:29;4.55;;;1.67;;
64826;SDS011;51265;53.972;12.286;2023-08-08T04:27:55;5.30;;;2.05;;
64826;SDS011;51265;53.972;12.286;2023-08-08T04:30:21;7.72;;;2.08;;
64826;SDS011;51265;53.972;12.286;2023-08-08T04:32:49;9.75;;;2.00;;
64826;SDS011;51265;53.972;12.286;2023-08-08T04:35:15;8.02;;;1.48;;
64826;SDS011;51265;53.972;12.286;2023-08-08T04:37:41;5.50;;;2.20;;
64826;SDS011;51265;53.972;12.286;2023-08-08T04:40:08;5.93;;;1.75;;
64826;SDS011;51265;53.972;12.286;2023-08-08T04:42:34;6.38;;;1.58;;
64826;SDS011;51265;53.972;12.286;2023-08-08T04:45:00;5.50;;;2.45;;
64826;SDS011;51265;53.972;12.286;2023-08-08T04:47:26;6.28;;;1.90;;
64826;SDS011;51265;53.972;12.286;2023-08-08T04:49:53;4.57;;;1.67;;
64826;SDS011;51265;53.972;12.286;2023-08-08T04:52:19;5.60;;;1.80;;
64826;SDS011;51265;53.972;12.286;2023-08-08T04:54:45;5.80;;;1.50;;
64826;SDS011;51265;53.972;12.286;2023-08-08T04:57:11;6.40;;;1.55;;
64826;SDS011;51265;53.972;12.286;2023-08-08T04:59:37;6.10;;;1.98;;
64826;SDS011;51265;53.972;12.286;2023-08-08T05:02:04;8.02;;;2.10;;
64826;SDS011;51265;53.972;12.286;2023-08-08T05:04:30;8.13;;;1.42;;
64826;SDS011;51265;53.972;12.286;2023-08-08T05:06:56;15.65;;;2.00;;
64826;SDS011;51265;53.972;12.286;2023-08-08T05:09:23;7.45;;;1.77;;
64826;SDS011;51265;53.972;12.286;2023-08-08T05:11:52;6.07;;;1.80;;
64826;SDS011;51265;53.972;12.286;2023-08-08T05:14:19;7.28;;;1.85;;
64826;SDS011;51265;53.972;12.286;2023-08-08T05:16:45;6.28;;;1.92;;
64826;SDS011;51265;53.972;12.286;2023-08-08T05:19:12;10.02;;;1.63;;
64826;SDS011;51265;53.972;12.286;2023-08-08T05:21:38;6.28;;;1.80;;
64826;SDS011;51265;53.972;12.286;2023-08-08T05:24:04;5.10;;;1.85;;
64826;SDS011;51265;53.972;12.286;2023-08-08T05:26:30;5.75;;;1.80;;
64826;SDS011;51265;53.972;12.286;2023-08-08T05:28:57;21.10;;;2.33;;
64826;SDS011;51265;53.972;12.286;2023-08-08T05:31:23;10.82;;;2.03;;
64826;SDS011;51265;53.972;12.286;2023-08-08T05:33:49;7.28;;;2.17;;
64826;SDS011;51265;53.972;12.286;2023-08-08T05:36:15;5.40;;;2.00;;
64826;SDS011;51265;53.972;12.286;2023-08-08T05:38:41;6.13;;;1.90;;
64826;SDS011;51265;53.972;12.286;2023-08-08T05:41:08;3.08;;;1.55;;
64826;SDS011;51265;53.972;12.286;2023-08-08T05:43:34;3.47;;;1.20;;
64826;SDS011;51265;53.972;12.286;2023-08-08T05:46:00;6.57;;;1.90;;
64826;SDS011;51265;53.972;12.286;2023-08-08T05:48:26;4.13;;;1.75;;
64826;SDS011;51265;53.972;12.286;2023-08-08T05:50:52;5.30;;;1.42;;
64826;SDS011;51265;53.972;12.286;2023-08-08T05:53:19;10.15;;;1.80;;
64826;SDS011;51265;53.972;12.286;2023-08-08T05:55:45;6.03;;;1.70;;
64826;SDS011;51265;53.972;12.286;2023-08-08T05:58:11;6.80;;;1.42;;
64826;SDS011;51265;53.972;12.286;2023-08-08T06:00:37;10.48;;;1.95;;
64826;SDS011;51265;53.972;12.286;2023-08-08T06:03:05;7.13;;;1.70;;
64826;SDS011;51265;53.972;12.286;2023-08-08T06:05:32;9.05;;;1.60;;
64826;SDS011;51265;53.972;12.286;2023-08-08T06:07:59;7.50;;;1.92;;
64826;SDS011;51265;53.972;12.286;2023-08-08T06:10:25;10.50;;;1.70;;
64826;SDS011;51265;53.972;12.286;2023-08-08T06:12:52;4.90;;;1.50;;
64826;SDS011;51265;53.972;12.286;2023-08-08T06:15:18;5.72;;;1.75;;
64826;SDS011;51265;53.972;12.286;2023-08-08T06:17:44;5.97;;;1.40;;
64826;SDS011;51265;53.972;12.286;2023-08-08T06:20:10;7.45;;;1.35;;
64826;SDS011;51265;53.972;12.286;2023-08-08T06:22:37;8.77;;;1.65;;
64826;SDS011;51265;53.972;12.286;2023-08-08T06:25:03;8.82;;;1.45;;
64826;SDS011;51265;53.972;12.286;2023-08-08T06:27:29;6.15;;;1.40;;
64826;SDS011;51265;53.972;12.286;2023-08-08T06:29:56;4.20;;;1.10;;
64826;SDS011;51265;53.972;12.286;2023-08-08T06:32:22;6.03;;;1.40;;
64826;SDS011;51265;53.972;12.286;2023-08-08T06:34:48;5.03;;;0.95;;
64826;SDS011;51265;53.972;12.286;2023-08-08T06:37:14;7.68;;;1.30;;
64826;SDS011;51265;53.972;12.286;2023-08-08T06:39:41;6.80;;;1.48;;
64826;SDS011;51265;53.972;12.286;2023-08-08T06:42:07;6.65;;;1.20;;
64826;SDS011;51265;53.972;12.286;2023-08-08T06:44:46;6.78;;;1.60;;
64826;SDS011;51265;53.972;12.286;2023-08-08T06:47:12;5.25;;;1.20;;
64826;SDS011;51265;53.972;12.286;2023-08-08T06:49:38;3.15;;;1.30;;
64826;SDS011;51265;53.972;12.286;2023-08-08T06:52:05;8.20;;;1.38;;
64826;SDS011;51265;53.972;12.286;2023-08-08T06:54:31;6.15;;;1.30;;
64826;SDS011;51265;53.972;12.286;2023-08-08T06:56:58;7.85;;;1.60;;
64826;SDS011;51265;53.972;12.286;2023-08-08T06:59:25;3.33;;;1.08;;
64826;SDS011;51265;53.972;12.286;2023-08-08T07:01:52;4.45;;;1.27;;
64826;SDS011;51265;53.972;12.286;2023-08-08T07:04:19;2.50;;;0.88;;
64826;SDS011;51265;53.972;12.286;2023-08-08T07:06:46;5.38;;;1.77;;
64826;SDS011;51265;53.972;12.286;2023-08-08T07:09:12;7.53;;;1.00;;
64826;SDS011;51265;53.972;12.286;2023-08-08T07:11:40;3.88;;;1.00;;
64826;SDS011;51265;53.972;12.286;2023-08-08T07:14:06;4.43;;;1.10;;
64826;SDS011;51265;53.972;12.286;2023-08-08T07:16:32;2.92;;;0.90;;
64826;SDS011;51265;53.972;12.286;2023-08-08T07:18:59;3.08;;;0.82;;
64826;SDS011;51265;53.972;12.286;2023-08-08T07:21:25;4.82;;;1.20;;
64826;SDS011;51265;53.972;12.286;2023-08-08T07:23:52;2.20;;;0.80;;
64826;SDS011;51265;53.972;12.286;2023-08-08T07:26:18;4.10;;;0.95;;
64826;SDS011;51265;53.972;12.286;2023-08-08T07:28:44;3.55;;;1.25;;
64826;SDS011;51265;53.972;12.286;2023-08-08T07:31:10;3.20;;;0.80;;
64826;SDS011;51265;53.972;12.286;2023-08-08T07:33:37;3.75;;;0.98;;
64826;SDS011;51265;53.972;12.286;2023-08-08T07:36:04;3.17;;;1.25;;
64826;SDS011;51265;53.972;12.286;2023-08-08T07:38:31;4.07;;;1.55;;
64826;SDS011;51265;53.972;12.286;2023-08-08T07:40:59;3.33;;;1.00;;
64826;SDS011;51265;53.972;12.286;2023-08-08T07:43:25;5.93;;;1.40;;
64826;SDS011;51265;53.972;12.286;2023-08-08T07:45:51;4.75;;;1.15;;
64826;SDS011;51265;53.972;12.286;2023-08-08T07:48:17;9.23;;;1.35;;
64826;SDS011;51265;53.972;12.286;2023-08-08T07:50:43;5.07;;;1.40;;
64826;SDS011;51265;53.972;12.286;2023-08-08T07:53:09;8.43;;;1.20;;
64826;SDS011;51265;53.972;12.286;2023-08-08T07:55:36;4.38;;;1.45;;
64826;SDS011;51265;53.972;12.286;2023-08-08T07:58:02;5.53;;;1.20;;
64826;SDS011;51265;53.972;12.286;2023-08-08T08:00:28;4.40;;;1.00;;
64826;SDS011;51265;53.972;12.286;2023-08-08T08:02:54;5.78;;;1.10;;
64826;SDS011;51265;53.972;12.286;2023-08-08T08:05:20;4.93;;;1.10;;
64826;SDS011;51265;53.972;12.286;2023-08-08T08:07:47;4.82;;;1.20;;
64826;SDS011;51265;53.972;12.286;2023-08-08T08:10:13;5.78;;;1.10;;
64826;SDS011;51265;53.972;12.286;2023-08-08T08:12:40;6.65;;;1.20;;
64826;SDS011;51265;53.972;12.286;2023-08-08T08:15:08;2.88;;;0.90;;
64826;SDS011;51265;53.972;12.286;2023-08-08T08:17:34;3.78;;;0.95;;
64826;SDS011;51265;53.972;12.286;2023-08-08T08:20:00;5.55;;;0.80;;
64826;SDS011;51265;53.972;12.286;2023-08-08T08:22:31;6.28;;;1.13;;
64826;SDS011;51265;53.972;12.286;2023-08-08T08:24:58;7.43;;;0.77;;
64826;SDS011;51265;53.972;12.286;2023-08-08T08:27:24;2.70;;;0.80;;
64826;SDS011;51265;53.972;12.286;2023-08-08T08:29:50;5.32;;;1.00;;
64826;SDS011;51265;53.972;12.286;2023-08-08T08:32:16;4.35;;;0.90;;
64826;SDS011;51265;53.972;12.286;2023-08-08T08:34:42;4.13;;;1.13;;
64826;SDS011;51265;53.972;12.286;2023-08-08T08:37:10;3.85;;;0.70;;
64826;SDS011;51265;53.972;12.286;2023-08-08T08:39:36;5.65;;;1.02;;
64826;SDS011;51265;53.972;12.286;2023-08-08T08:42:02;1.77;;;0.55;;
64826;SDS011;51265;53.972;12.286;2023-08-08T08:44:33;5.95;;;1.05;;
64826;SDS011;51265;53.972;12.286;2023-08-08T08:47:03;3.92;;;0.93;;
64826;SDS011;51265;53.972;12.286;2023-08-08T08:49:36;5.38;;;1.00;;
64826;SDS011;51265;53.972;12.286;2023-08-08T08:52:04;7.97;;;1.77;;
64826;SDS011;51265;53.972;12.286;2023-08-08T08:54:31;4.95;;;1.17;;
64826;SDS011;51265;53.972;12.286;2023-08-08T08:56:58;3.92;;;1.17;;
64826;SDS011;51265;53.972;12.286;2023-08-08T08:59:24;3.88;;;1.38;;
64826;SDS011;51265;53.972;12.286;2023-08-08T09:01:51;3.80;;;1.02;;
64826;SDS011;51265;53.972;12.286;2023-08-08T09:04:18;5.22;;;0.90;;
64826;SDS011;51265;53.972;12.286;2023-08-08T09:06:45;2.08;;;1.15;;
64826;SDS011;51265;53.972;12.286;2023-08-08T09:09:13;5.65;;;1.40;;
64826;SDS011;51265;53.972;12.286;2023-08-08T09:11:45;4.43;;;1.20;;
64826;SDS011;51265;53.972;12.286;2023-08-08T09:14:20;4.05;;;1.10;;
64826;SDS011;51265;53.972;12.286;2023-08-08T09:16:47;6.80;;;1.05;;
64826;SDS011;51265;53.972;12.286;2023-08-08T09:19:15;3.30;;;1.15;;
64826;SDS011;51265;53.972;12.286;2023-08-08T09:21:43;5.15;;;1.10;;
64826;SDS011;51265;53.972;12.286;2023-08-08T09:24:10;5.22;;;1.05;;
64826;SDS011;51265;53.972;12.286;2023-08-08T09:26:36;6.78;;;1.25;;
64826;SDS011;51265;53.972;12.286;2023-08-08T09:29:03;3.08;;;0.90;;
64826;SDS011;51265;53.972;12.286;2023-08-08T09:31:29;4.72;;;1.23;;
64826;SDS011;51265;53.972;12.286;2023-08-08T09:33:57;4.03;;;0.85;;
64826;SDS011;51265;53.972;12.286;2023-08-08T09:36:24;5.35;;;1.02;;
64826;SDS011;51265;53.972;12.286;2023-08-08T09:38:50;3.75;;;1.08;;
64826;SDS011;51265;53.972;12.286;2023-08-08T09:41:16;5.15;;;1.10;;
64826;SDS011;51265;53.972;12.286;2023-08-08T09:43:43;6.60;;;1.02;;
64826;SDS011;51265;53.972;12.286;2023-08-08T09:46:10;5.70;;;0.90;;
64826;SDS011;51265;53.972;12.286;2023-08-08T09:48:36;5.65;;;1.30;;
64826;SDS011;51265;53.972;12.286;2023-08-08T09:51:05;5.07;;;0.98;;
64826;SDS011;51265;53.972;12.286;2023-08-08T09:53:33;5.63;;;0.95;;
64826;SDS011;51265;53.972;12.286;2023-08-08T09:56:01;3.05;;;0.75;;
64826;SDS011;51265;53.972;12.286;2023-08-08T09:58:29;2.63;;;0.70;;
64826;SDS011;51265;53.972;12.286;2023-08-08T10:00:56;4.55;;;0.73;;
64826;SDS011;51265;53.972;12.286;2023-08-08T10:03:22;4.82;;;0.80;;
64826;SDS011;51265;53.972;12.286;2023-08-08T10:05:49;3.05;;;0.98;;
64826;SDS011;51265;53.972;12.286;2023-08-08T10:08:29;4.75;;;0.80;;
64826;SDS011;51265;53.972;12.286;2023-08-08T10:10:56;4.10;;;0.75;;
64826;SDS011;51265;53.972;12.286;2023-08-08T10:13:23;7.38;;;1.23;;
64826;SDS011;51265;53.972;12.286;2023-08-08T10:15:50;4.78;;;1.33;;
64826;SDS011;51265;53.972;12.286;2023-08-08T10:18:17;3.58;;;1.20;;
64826;SDS011;51265;53.972;12.286;2023-08-08T10:20:46;6.88;;;1.40;;
64826;SDS011;51265;53.972;12.286;2023-08-08T10:23:17;5.55;;;1.65;;
64826;SDS011;51265;53.972;12.286;2023-08-08T10:25:47;7.55;;;1.90;;
64826;SDS011;51265;53.972;12.286;2023-08-08T10:28:18;12.80;;;1.88;;
64826;SDS011;51265;53.972;12.286;2023-08-08T10:30:52;5.57;;;1.70;;
64826;SDS011;51265;53.972;12.286;2023-08-08T10:33:26;4.50;;;2.42;;
64826;SDS011;51265;53.972;12.286;2023-08-08T10:35:58;5.95;;;1.63;;
64826;SDS011;51265;53.972;12.286;2023-08-08T10:41:11;4.55;;;1.23;;
64826;SDS011;51265;53.972;12.286;2023-08-08T10:43:38;4.47;;;1.50;;
64826;SDS011;51265;53.972;12.286;2023-08-08T10:46:12;3.45;;;1.15;;
64826;SDS011;51265;53.972;12.286;2023-08-08T10:48:48;3.97;;;1.00;;
64826;SDS011;51265;53.972;12.286;2023-08-08T10:51:16;3.60;;;0.90;;
64826;SDS011;51265;53.972;12.286;2023-08-08T10:53:43;2.33;;;0.70;;
64826;SDS011;51265;53.972;12.286;2023-08-08T10:56:11;2.70;;;1.30;;
64826;SDS011;51265;53.972;12.286;2023-08-08T10:58:39;2.80;;;0.80;;
64826;SDS011;51265;53.972;12.286;2023-08-08T11:01:07;4.22;;;0.95;;
64826;SDS011;51265;53.972;12.286;2023-08-08T11:03:35;2.60;;;0.80;;
64826;SDS011;51265;53.972;12.286;2023-08-08T11:06:03;2.33;;;0.80;;
64826;SDS011;51265;53.972;12.286;2023-08-08T11:08:30;4.00;;;0.57;;
64826;SDS011;51265;53.972;12.286;2023-08-08T11:10:58;1.67;;;0.73;;
64826;SDS011;51265;53.972;12.286;2023-08-08T11:13:25;1.42;;;0.50;;
64826;SDS011;51265;53.972;12.286;2023-08-08T11:15:52;3.92;;;0.77;;
64826;SDS011;51265;53.972;12.286;2023-08-08T11:18:18;2.72;;;0.60;;
64826;SDS011;51265;53.972;12.286;2023-08-08T11:20:44;1.63;;;0.75;;
64826;SDS011;51265;53.972;12.286;2023-08-08T11:23:11;3.13;;;0.47;;
64826;SDS011;51265;53.972;12.286;2023-08-08T11:25:41;5.75;;;0.40;;
64826;SDS011;51265;53.972;12.286;2023-08-08T11:28:09;2.05;;;0.70;;
64826;SDS011;51265;53.972;12.286;2023-08-08T11:30:40;2.75;;;0.70;;
64826;SDS011;51265;53.972;12.286;2023-08-08T11:33:09;3.47;;;0.93;;
64826;SDS011;51265;53.972;12.286;2023-08-08T11:35:42;3.60;;;0.70;;
64826;SDS011;51265;53.972;12.286;2023-08-08T11:38:11;6.88;;;0.98;;
64826;SDS011;51265;53.972;12.286;2023-08-08T11:40:39;5.63;;;0.70;;
64826;SDS011;51265;53.972;12.286;2023-08-08T11:43:05;2.75;;;0.52;;
64826;SDS011;51265;53.972;12.286;2023-08-08T11:45:33;3.20;;;0.70;;
64826;SDS011;51265;53.972;12.286;2023-08-08T11:48:00;3.22;;;0.50;;
64826;SDS011;51265;53.972;12.286;2023-08-08T11:50:27;6.32;;;0.70;;
64826;SDS011;51265;53.972;12.286;2023-08-08T11:53:10;2.58;;;0.73;;
64826;SDS011;51265;53.972;12.286;2023-08-08T11:55:36;2.55;;;0.65;;
64826;SDS011;51265;53.972;12.286;2023-08-08T11:58:17;1.88;;;0.55;;
64826;SDS011;51265;53.972;12.286;2023-08-08T12:00:43;2.85;;;0.50;;
64826;SDS011;51265;53.972;12.286;2023-08-08T12:03:12;3.83;;;0.38;;
64826;SDS011;51265;53.972;12.286;2023-08-08T12:05:45;4.70;;;0.40;;
64826;SDS011;51265;53.972;12.286;2023-08-08T12:08:12;1.55;;;0.50;;
64826;SDS011;51265;53.972;12.286;2023-08-08T12:10:38;1.58;;;0.52;;
64826;SDS011;51265;53.972;12.286;2023-08-08T12:13:05;2.03;;;0.50;;
64826;SDS011;51265;53.972;12.286;2023-08-08T12:15:34;1.23;;;0.50;;
64826;SDS011;51265;53.972;12.286;2023-08-08T12:18:01;0.88;;;0.50;;
64826;SDS011;51265;53.972;12.286;2023-08-08T12:20:28;1.60;;;0.40;;
64826;SDS011;51265;53.972;12.286;2023-08-08T12:22:55;1.52;;;0.30;;
64826;SDS011;51265;53.972;12.286;2023-08-08T12:25:21;2.92;;;0.55;;
64826;SDS011;51265;53.972;12.286;2023-08-08T12:27:48;2.03;;;0.73;;
64826;SDS011;51265;53.972;12.286;2023-08-08T12:30:15;2.28;;;0.40;;
64826;SDS011;51265;53.972;12.286;2023-08-08T12:32:41;2.70;;;0.40;;
64826;SDS011;51265;53.972;12.286;2023-08-08T12:35:08;6.95;;;0.50;;
64826;SDS011;51265;53.972;12.286;2023-08-08T12:37:34;1.25;;;0.40;;
64826;SDS011;51265;53.972;12.286;2023-08-08T12:40:00;4.57;;;0.55;;
64826;SDS011;51265;53.972;12.286;2023-08-08T12:42:28;4.00;;;0.73;;
64826;SDS011;51265;53.972;12.286;2023-08-08T12:44:54;1.17;;;0.45;;
64826;SDS011;51265;53.972;12.286;2023-08-08T12:47:21;2.35;;;0.40;;
64826;SDS011;51265;53.972;12.286;2023-08-08T12:49:47;1.50;;;0.47;;
64826;SDS011;51265;53.972;12.286;2023-08-08T12:52:13;2.75;;;0.50;;
64826;SDS011;51265;53.972;12.286;2023-08-08T12:54:40;1.77;;;0.70;;
64826;SDS011;51265;53.972;12.286;2023-08-08T12:57:06;2.78;;;0.73;;
64826;SDS011;51265;53.972;12.286;2023-08-08T12:59:32;0.73;;;0.30;;
64826;SDS011;51265;53.972;12.286;2023-08-08T13:01:58;4.05;;;0.70;;
64826;SDS011;51265;53.972;12.286;2023-08-08T13:04:24;1.80;;;0.57;;
64826;SDS011;51265;53.972;12.286;2023-08-08T13:06:51;3.30;;;0.60;;
64826;SDS011;51265;53.972;12.286;2023-08-08T13:09:17;3.22;;;0.50;;
64826;SDS011;51265;53.972;12.286;2023-08-08T13:11:43;2.83;;;0.60;;
64826;SDS011;51265;53.972;12.286;2023-08-08T13:14:09;2.53;;;0.60;;
64826;SDS011;51265;53.972;12.286;2023-08-08T13:16:35;2.80;;;0.60;;
64826;SDS011;51265;53.972;12.286;2023-08-08T13:19:02;2.35;;;0.63;;
64826;SDS011;51265;53.972;12.286;2023-08-08T13:21:29;3.67;;;0.55;;
64826;SDS011;51265;53.972;12.286;2023-08-08T13:23:55;1.55;;;0.50;;
64826;SDS011;51265;53.972;12.286;2023-08-08T13:26:21;2.85;;;0.50;;
64826;SDS011;51265;53.972;12.286;2023-08-08T13:28:47;4.78;;;0.73;;
64826;SDS011;51265;53.972;12.286;2023-08-08T13:31:15;6.25;;;0.73;;
64826;SDS011;51265;53.972;12.286;2023-08-08T13:33:42;3.70;;;0.50;;
64826;SDS011;51265;53.972;12.286;2023-08-08T13:36:08;1.92;;;0.60;;
64826;SDS011;51265;53.972;12.286;2023-08-08T13:38:35;2.83;;;0.43;;
64826;SDS011;51265;53.972;12.286;2023-08-08T13:41:01;7.53;;;0.88;;
64826;SDS011;51265;53.972;12.286;2023-08-08T13:43:27;5.40;;;0.80;;
64826;SDS011;51265;53.972;12.286;2023-08-08T13:45:55;2.78;;;0.60;;
64826;SDS011;51265;53.972;12.286;2023-08-08T13:48:22;3.15;;;0.80;;
64826;SDS011;51265;53.972;12.286;2023-08-08T13:50:49;4.55;;;1.00;;
64826;SDS011;51265;53.972;12.286;2023-08-08T13:53:16;5.40;;;1.00;;
64826;SDS011;51265;53.972;12.286;2023-08-08T13:55:42;4.22;;;0.90;;
64826;SDS011;51265;53.972;12.286;2023-08-08T13:58:10;3.65;;;0.88;;
64826;SDS011;51265;53.972;12.286;2023-08-08T14:00:36;3.55;;;0.90;;
64826;SDS011;51265;53.972;12.286;2023-08-08T14:03:02;4.05;;;1.10;;
64826;SDS011;51265;53.972;12.286;2023-08-08T14:05:29;10.88;;;1.83;;
64826;SDS011;51265;53.972;12.286;2023-08-08T14:07:57;6.75;;;0.93;;
64826;SDS011;51265;53.972;12.286;2023-08-08T14:10:23;5.93;;;1.10;;
64826;SDS011;51265;53.972;12.286;2023-08-08T14:12:49;14.18;;;1.48;;
64826;SDS011;51265;53.972;12.286;2023-08-08T14:15:15;4.97;;;0.95;;
64826;SDS011;51265;53.972;12.286;2023-08-08T14:17:42;3.50;;;0.70;;
64826;SDS011;51265;53.972;12.286;2023-08-08T14:20:08;4.63;;;0.90;;
64826;SDS011;51265;53.972;12.286;2023-08-08T14:22:47;6.72;;;1.10;;
64826;SDS011;51265;53.972;12.286;2023-08-08T14:25:14;5.30;;;1.27;;
64826;SDS011;51265;53.972;12.286;2023-08-08T14:27:40;9.23;;;1.40;;
64826;SDS011;51265;53.972;12.286;2023-08-08T14:30:06;5.40;;;1.30;;
64826;SDS011;51265;53.972;12.286;2023-08-08T14:32:33;3.05;;;0.82;;
64826;SDS011;51265;53.972;12.286;2023-08-08T14:34:59;4.57;;;0.95;;
64826;SDS011;51265;53.972;12.286;2023-08-08T14:37:28;10.27;;;1.00;;
64826;SDS011;51265;53.972;12.286;2023-08-08T14:39:54;15.43;;;2.30;;